TRA2RG EHRD-EDDM
Flight info
| Callsign | TRA2RG |
|---|---|
| Flight time | N/A |
| Altitude | 35000 |
| Route | LUNIX Z739 MISGO DCT DOJOH DCT DODEN DCT TABUM DCT HAREM T104 ROKIL ROKIL1B |
| Aircraft | B738/M-SDE2E3FGHIRWXY/LB1 |
Departure
| Time | 2026-05-07 17:31 |
|---|---|
| Airport | Rotterdam The Hague Airport (EHRD) |
Arrival
| Time | N/A |
|---|---|
| Airport | Munich Airport (EDDM) |
| Time | Latitude | Longitude | Altitude | Speed | Heading |
|---|---|---|---|---|---|
| 2026-05-07 17:03 | 51.95017 | 4.43505 | 1 ft | 0 kts | 326° |
| 2026-05-07 17:24 | 51.95010 | 4.43512 | 0 ft | 4 kts | 326° |
| 2026-05-07 17:24 | 51.94991 | 4.43533 | 0 ft | 4 kts | 342° |
| 2026-05-07 17:24 | 51.94969 | 4.43530 | 1 ft | 4 kts | 45° |
| 2026-05-07 17:24 | 51.94957 | 4.43505 | 2 ft | 1 kts | 57° |
| 2026-05-07 17:25 | 51.94955 | 4.43500 | 2 ft | 0 kts | 57° |
| 2026-05-07 17:25 | 51.94955 | 4.43501 | 2 ft | 0 kts | 57° |
| 2026-05-07 17:26 | 51.94956 | 4.43502 | 2 ft | 0 kts | 57° |
| 2026-05-07 17:26 | 51.94957 | 4.43504 | 2 ft | 0 kts | 57° |
| 2026-05-07 17:26 | 51.94957 | 4.43505 | 2 ft | 0 kts | 57° |
| 2026-05-07 17:27 | 51.94963 | 4.43520 | 2 ft | 3 kts | 57° |
| 2026-05-07 17:27 | 51.94980 | 4.43563 | 1 ft | 6 kts | 57° |
| 2026-05-07 17:27 | 51.95008 | 4.43632 | 0 ft | 8 kts | 50° |
| 2026-05-07 17:28 | 51.95063 | 4.43619 | 0 ft | 10 kts | 327° |
| 2026-05-07 17:28 | 51.95126 | 4.43555 | 0 ft | 12 kts | 328° |
| 2026-05-07 17:28 | 51.95201 | 4.43480 | 0 ft | 13 kts | 328° |
| 2026-05-07 17:28 | 51.95242 | 4.43416 | 0 ft | 8 kts | 278° |
| 2026-05-07 17:29 | 51.95212 | 4.43323 | 0 ft | 11 kts | 237° |
| 2026-05-07 17:29 | 51.95168 | 4.43210 | 1 ft | 13 kts | 239° |
| 2026-05-07 17:29 | 51.95121 | 4.43066 | 0 ft | 15 kts | 244° |
| 2026-05-07 17:29 | 51.95110 | 4.43017 | 0 ft | 4 kts | 257° |
| 2026-05-07 17:30 | 51.95114 | 4.42956 | 0 ft | 7 kts | 295° |
| 2026-05-07 17:30 | 51.95155 | 4.42897 | 0 ft | 9 kts | 324° |
| 2026-05-07 17:30 | 51.95212 | 4.42851 | 1 ft | 10 kts | 8° |
| 2026-05-07 17:30 | 51.95237 | 4.42887 | 2 ft | 11 kts | 54° |
| 2026-05-07 17:31 | 51.95454 | 4.43431 | -1 ft | 103 kts | 57° |
| 2026-05-07 17:31 | 51.95981 | 4.44740 | 158 ft | 161 kts | 55° |
| 2026-05-07 17:31 | 51.96562 | 4.46240 | 1263 ft | 152 kts | 56° |
| 2026-05-07 17:31 | 51.97105 | 4.47699 | 2340 ft | 153 kts | 59° |
| 2026-05-07 17:32 | 51.97687 | 4.49271 | 3053 ft | 178 kts | 62° |
| 2026-05-07 17:32 | 51.98334 | 4.51228 | 3375 ft | 214 kts | 63° |
| 2026-05-07 17:32 | 51.99050 | 4.53486 | 3834 ft | 233 kts | 64° |
| 2026-05-07 17:32 | 51.99815 | 4.55848 | 4595 ft | 241 kts | 57° |
| 2026-05-07 17:33 | 52.00993 | 4.57832 | 5395 ft | 249 kts | 39° |
| 2026-05-07 17:33 | 52.02511 | 4.59246 | 6198 ft | 257 kts | 25° |
| 2026-05-07 17:33 | 52.04219 | 4.60475 | 6797 ft | 279 kts | 24° |
| 2026-05-07 17:33 | 52.05881 | 4.62092 | 7797 ft | 279 kts | 44° |
| 2026-05-07 17:34 | 52.07225 | 4.64406 | 8807 ft | 285 kts | 48° |
| 2026-05-07 17:34 | 52.08475 | 4.66927 | 9782 ft | 291 kts | 64° |
| 2026-05-07 17:34 | 52.08898 | 4.70126 | 10593 ft | 299 kts | 95° |
| 2026-05-07 17:34 | 52.08457 | 4.73520 | 10926 ft | 324 kts | 107° |
| 2026-05-07 17:35 | 52.07796 | 4.77196 | 11175 ft | 351 kts | 108° |
| 2026-05-07 17:35 | 52.07085 | 4.81063 | 11814 ft | 362 kts | 107° |